Davison Army Air Field
KDAA : rendu visible

Aérodrome :











RETROUVEZ-NOUS SUR...

 
LOGIN :

S'inscrire | Disclaimer

   EN    FR    IT 

 









Légende :    VFR   VFR Marginal   IFR   IFR Intensif   IFR Très Intensif
Visi : 
Plafond : 
>= 8 km
>= 3000ft
5 à 8 km
1000 à 3000 ft
1500m à 5 km
500 à 1000 ft
800 à 1500m
200 à 500 ft
< 800m
< 200 ft
Symboles :   Orages  Brouillard  Fortes neiges  Fortes précipitations  Vent > 20 kt






- Altitude de l'aérodrome : 73 ft


KDAA - Davison Army Air Field

DERNIER METAR :
  • 011256Z AUTO 00000KT 10SM CLR 18/04 A3035 RMK AO2 SLP280 T01750041 TSNO $

METARs EXPIRÉS :
  • 011156Z AUTO 31004KT 10SM CLR 16/05 A3033 RMK AO2 SLP273 T01550048 10162 20092 52018 TSNO $
  • 011056Z AUTO 00000KT 10SM CLR 11/06 A3031 RMK AO2 SLP267 T01050061 TSNO $

TAF TAF KDAA
Valide du 01 à 09h jusqu'au 02 à 15h UTC


010920Z 0109/0215 VRB06KT 9999 SKC QNH3024INS
BECMG 0114/0115 01012G18KT 9999 SKC QNH3020INS
BECMG 0123/0124 VRB06KT 9999 FEW160 QNH3012INS TX21/0120Z TN10/0208Z
FIR KZDC / Amérique du Nord



MET'MAP, la Météo Aéronautique d'un coup d'oeil ! - Copyright ORBIFLY Décembre 2007 - Disclaimer

ORBIFLY MET'MAP TEAM :

Programmation & Développement : Alexandra Zaïnal
Sur une idée originale de : Baudouin d'Aumeries
Assistance à la programmation : Marc-Olivier Méhu
Soutien technique & logistique : Manuel Goepfert

Contact : metmap@orbifly.com




SOURCES & CREDITS :

   NOAA       Earth
Advisory